Time;durP1;ratioP1;P1;durP2;ratioP2;P2;SDS_P1;SDS_P2;PMS_P1;PMS_P2;Temp;Humidity;BMP_temperature;BMP_pressure;BME280_temperature;BME280_humidity;BME280_pressure;Samples;Min_cycle;Max_cycle;Signal;HPM_P1;HPM_P2
2022/05/11 00:00:58;;;;;;;13.38;6.95;;;;;;;;;;5033278;28;20049;-39
2022/05/11 00:03:24;;;;;;;8.82;7.00;;;;;;;;;;5033100;28;20083;-39
2022/05/11 00:05:50;;;;;;;9.95;6.85;;;;;;;;;;5032809;28;20025;-39
2022/05/11 00:08:15;;;;;;;8.18;6.07;;;;;;;;;;5033292;28;20074;-39
2022/05/11 00:10:41;;;;;;;8.77;6.40;;;;;;;;;;5032975;28;20104;-39
2022/05/11 00:13:07;;;;;;;6.80;5.65;;;;;;;;;;5032865;28;20021;-40
2022/05/11 00:15:32;;;;;;;8.10;6.88;;;;;;;;;;5032970;28;20055;-39
2022/05/11 00:17:58;;;;;;;7.47;6.25;;;;;;;;;;5032857;28;20033;-39
2022/05/11 00:20:23;;;;;;;9.10;6.13;;;;;;;;;;5032801;28;20025;-39
2022/05/11 00:22:53;;;;;;;9.15;6.60;;;;;;;;;;5033100;28;20025;-39
2022/05/11 00:25:19;;;;;;;8.90;6.70;;;;;;;;;;5032867;28;20036;-39
2022/05/11 00:27:45;;;;;;;8.82;6.65;;;;;;;;;;5032891;28;20021;-39
2022/05/11 00:30:11;;;;;;;8.10;6.32;;;;;;;;;;5032649;28;20018;-39
2022/05/11 00:32:36;;;;;;;8.63;6.05;;;;;;;;;;5032778;28;20116;-39
2022/05/11 00:35:02;;;;;;;11.55;6.30;;;;;;;;;;5032517;28;20441;-39
2022/05/11 00:37:28;;;;;;;10.10;7.88;;;;;;;;;;5032347;28;20584;-39
2022/05/11 00:39:53;;;;;;;9.10;6.43;;;;;;;;;;5032752;28;20033;-39
2022/05/11 00:42:19;;;;;;;9.13;6.03;;;;;;;;;;5032712;28;20456;-39
2022/05/11 00:44:44;;;;;;;6.45;5.40;;;;;;;;;;5032489;28;20017;-39
2022/05/11 00:47:27;;;;;;;13.63;7.30;;;;;;;;;;5032936;28;20023;-39
2022/05/11 00:49:58;;;;;;;8.43;6.68;;;;;;;;;;5032787;28;20029;-39
2022/05/11 00:52:36;;;;;;;7.88;6.47;;;;;;;;;;5032701;28;20023;-39
2022/05/11 00:55:04;;;;;;;8.57;6.45;;;;;;;;;;5032549;28;20060;-39
2022/05/11 00:57:32;;;;;;;9.85;6.88;;;;;;;;;;5032675;28;20391;-39
2022/05/11 00:59:58;;;;;;;11.75;8.18;;;;;;;;;;5032682;28;20030;-40
2022/05/11 01:02:23;;;;;;;11.57;7.03;;;;;;;;;;5032643;28;20036;-39
2022/05/11 01:04:51;;;;;;;9.20;7.00;;;;;;;;;;5032613;28;20017;-39
2022/05/11 01:07:16;;;;;;;7.78;6.55;;;;;;;;;;5032553;28;20463;-39
2022/05/11 01:09:42;;;;;;;15.43;7.63;;;;;;;;;;5032548;28;20128;-39
2022/05/11 01:12:10;;;;;;;15.50;7.47;;;;;;;;;;5032409;28;20022;-40
2022/05/11 01:14:38;;;;;;;8.88;7.03;;;;;;;;;;5032303;28;20473;-39
2022/05/11 01:17:03;;;;;;;9.98;7.30;;;;;;;;;;5032373;28;20064;-39
2022/05/11 01:19:31;;;;;;;11.88;6.90;;;;;;;;;;5032489;28;20468;-39
2022/05/11 01:22:03;;;;;;;13.98;8.30;;;;;;;;;;5032514;28;20063;-39
2022/05/11 01:24:38;;;;;;;10.63;7.80;;;;;;;;;;5034734;28;20108;-39
2022/05/11 01:27:22;;;;;;;19.63;8.20;;;;;;;;;;5035902;28;20112;-39
2022/05/11 01:29:47;;;;;;;11.73;8.00;;;;;;;;;;5036000;28;20504;-39
2022/05/11 01:32:13;;;;;;;14.18;7.28;;;;;;;;;;5035986;28;20025;-39
2022/05/11 01:34:38;;;;;;;12.77;8.15;;;;;;;;;;5036004;28;20024;-40
2022/05/11 01:37:04;;;;;;;12.65;7.53;;;;;;;;;;5035612;28;20060;-39
2022/05/11 01:39:29;;;;;;;13.55;8.75;;;;;;;;;;5035845;28;20025;-39
2022/05/11 01:41:55;;;;;;;13.50;9.30;;;;;;;;;;5035874;28;20100;-39
2022/05/11 01:44:21;;;;;;;12.48;9.05;;;;;;;;;;5035693;28;20107;-39
2022/05/11 01:46:48;;;;;;;14.60;10.27;;;;;;;;;;5035564;28;20041;-39
2022/05/11 01:49:14;;;;;;;15.68;8.60;;;;;;;;;;5035646;28;20028;-39
2022/05/11 01:51:39;;;;;;;11.98;7.90;;;;;;;;;;5035623;28;20025;-39
2022/05/11 01:54:04;;;;;;;12.70;8.93;;;;;;;;;;5035556;28;20052;-40
2022/05/11 01:56:30;;;;;;;12.15;8.07;;;;;;;;;;5035331;28;20472;-39
2022/05/11 01:58:56;;;;;;;15.50;7.68;;;;;;;;;;5035828;28;20067;-39
2022/05/11 02:01:23;;;;;;;14.60;9.05;;;;;;;;;;5035551;28;20060;-39
2022/05/11 02:03:49;;;;;;;12.77;8.82;;;;;;;;;;5034115;28;20018;-39
2022/05/11 02:08:58;;;;;;;13.23;9.25;;;;;;;;;;5035326;28;20048;-40
2022/05/11 02:11:23;;;;;;;15.55;8.65;;;;;;;;;;5035452;28;20457;-39
2022/05/11 02:13:49;;;;;;;11.82;9.07;;;;;;;;;;5035588;28;20026;-39
2022/05/11 02:16:14;;;;;;;14.85;9.05;;;;;;;;;;5035125;28;20036;-39
2022/05/11 02:18:40;;;;;;;10.27;8.00;;;;;;;;;;5033810;28;20032;-39
2022/05/11 02:21:07;;;;;;;9.50;7.47;;;;;;;;;;5035378;28;20017;-39
2022/05/11 02:23:33;;;;;;;13.18;9.52;;;;;;;;;;5033724;28;20103;-40
2022/05/11 02:25:58;;;;;;;17.70;9.38;;;;;;;;;;5034847;28;20054;-39
2022/05/11 02:28:23;;;;;;;17.90;9.55;;;;;;;;;;5035352;28;20032;-39
2022/05/11 02:30:51;;;;;;;20.70;9.48;;;;;;;;;;5034931;28;20025;-39
2022/05/11 02:33:17;;;;;;;17.33;9.27;;;;;;;;;;5034823;28;20055;-39
2022/05/11 02:35:43;;;;;;;21.55;9.80;;;;;;;;;;5034809;28;20457;-39
2022/05/11 02:38:10;;;;;;;20.00;9.85;;;;;;;;;;5034462;28;20049;-40
2022/05/11 02:40:37;;;;;;;13.90;10.20;;;;;;;;;;5034635;28;20048;-39
2022/05/11 02:43:02;;;;;;;22.83;9.77;;;;;;;;;;5033397;28;20017;-39
2022/05/11 02:45:28;;;;;;;14.65;10.13;;;;;;;;;;5034775;28;20342;-39
2022/05/11 02:47:54;;;;;;;15.13;10.38;;;;;;;;;;5034613;28;20025;-39
2022/05/11 02:50:25;;;;;;;14.48;10.00;;;;;;;;;;5033307;28;20448;-39
2022/05/11 02:52:51;;;;;;;17.83;9.85;;;;;;;;;;5034309;28;20025;-39
2022/05/11 02:55:16;;;;;;;18.13;9.93;;;;;;;;;;5034195;28;20431;-39
2022/05/11 02:57:42;;;;;;;17.65;10.15;;;;;;;;;;5034147;28;20033;-39
2022/05/11 03:00:09;;;;;;;17.70;9.70;;;;;;;;;;5034419;28;20080;-39
2022/05/11 03:02:35;;;;;;;21.77;10.20;;;;;;;;;;5034328;28;20021;-39
2022/05/11 03:05:01;;;;;;;14.82;9.10;;;;;;;;;;5034188;28;20144;-39
2022/05/11 03:07:26;;;;;;;13.30;9.88;;;;;;;;;;5033943;28;20034;-40
2022/05/11 03:09:53;;;;;;;13.77;9.73;;;;;;;;;;5034148;28;20017;-39
2022/05/11 03:12:19;;;;;;;15.93;10.55;;;;;;;;;;5034315;28;20465;-39
2022/05/11 03:14:44;;;;;;;15.73;10.18;;;;;;;;;;5034086;28;20021;-39
2022/05/11 03:17:10;;;;;;;16.10;9.98;;;;;;;;;;5033898;28;20037;-39
2022/05/11 03:19:35;;;;;;;16.10;10.10;;;;;;;;;;5033735;28;20018;-39
2022/05/11 03:22:01;;;;;;;18.13;10.27;;;;;;;;;;5033862;28;20104;-40
2022/05/11 03:24:26;;;;;;;15.93;9.73;;;;;;;;;;5033695;28;20025;-39
2022/05/11 03:26:51;;;;;;;15.18;9.13;;;;;;;;;;5032657;28;20018;-39
2022/05/11 03:29:18;;;;;;;17.08;11.30;;;;;;;;;;5033916;28;20025;-39
2022/05/11 03:34:36;;;;;;;20.23;11.63;;;;;;;;;;5033709;28;20083;-40
2022/05/11 03:34:38;;;;;;;27.77;11.07;;;;;;;;;;5033452;28;20465;-38
2022/05/11 03:37:04;;;;;;;22.77;10.73;;;;;;;;;;5033074;28;20049;-39
2022/05/11 03:39:29;;;;;;;29.60;10.13;;;;;;;;;;5033604;28;20104;-39
2022/05/11 03:41:55;;;;;;;42.88;13.52;;;;;;;;;;5033517;28;20189;-38
2022/05/11 03:44:20;;;;;;;22.08;12.02;;;;;;;;;;5033436;28;20028;-38
2022/05/11 03:46:45;;;;;;;26.48;11.15;;;;;;;;;;5032936;28;20021;-39
2022/05/11 03:49:11;;;;;;;21.63;11.55;;;;;;;;;;5033393;28;20028;-40
2022/05/11 03:51:36;;;;;;;15.10;10.52;;;;;;;;;;5033198;28;20029;-38
2022/05/11 03:54:02;;;;;;;19.98;10.88;;;;;;;;;;5033515;28;20071;-39
2022/05/11 03:56:28;;;;;;;21.95;11.77;;;;;;;;;;5033246;28;20033;-39
2022/05/11 03:58:55;;;;;;;21.90;12.25;;;;;;;;;;5033467;28;20060;-39
2022/05/11 04:01:20;;;;;;;19.77;11.75;;;;;;;;;;5033246;28;20076;-39
2022/05/11 04:06:15;;;;;;;105.28;37.97;;;;;;;;;;5069834;28;20372;-39
2022/05/11 04:08:42;;;;;;;35.97;16.35;;;;;;;;;;5070345;28;20039;-39
2022/05/11 04:11:07;;;;;;;32.65;14.38;;;;;;;;;;5068866;28;20535;-39
2022/05/11 04:13:32;;;;;;;23.42;12.23;;;;;;;;;;5070006;28;20096;-39
2022/05/11 04:15:58;;;;;;;38.75;13.80;;;;;;;;;;5069933;28;20425;-39
2022/05/11 04:18:23;;;;;;;47.47;12.27;;;;;;;;;;5069866;28;20418;-39
2022/05/11 04:20:48;;;;;;;27.98;11.80;;;;;;;;;;5068417;28;20107;-39
2022/05/11 04:23:14;;;;;;;20.02;12.07;;;;;;;;;;5070095;28;20343;-39
2022/05/11 04:25:40;;;;;;;29.15;11.35;;;;;;;;;;5069615;28;20032;-39
2022/05/11 04:28:09;;;;;;;19.20;11.13;;;;;;;;;;5069733;28;20038;-39
2022/05/11 04:30:35;;;;;;;19.85;10.55;;;;;;;;;;5069722;28;20016;-39
2022/05/11 04:33:00;;;;;;;22.13;9.88;;;;;;;;;;5069596;28;20092;-39
2022/05/11 04:35:31;;;;;;;22.75;10.65;;;;;;;;;;5069766;28;20028;-39
2022/05/11 04:38:03;;;;;;;18.50;10.10;;;;;;;;;;5069645;28;20017;-39
2022/05/11 04:40:29;;;;;;;18.63;10.25;;;;;;;;;;5069420;28;20025;-39
2022/05/11 04:42:54;;;;;;;17.52;8.50;;;;;;;;;;5069420;28;20474;-39
2022/05/11 04:45:20;;;;;;;12.98;8.43;;;;;;;;;;5069226;28;20033;-39
2022/05/11 04:47:45;;;;;;;16.80;9.30;;;;;;;;;;5069315;28;20035;-40
2022/05/11 04:50:12;;;;;;;14.75;7.97;;;;;;;;;;5069132;28;20349;-39
2022/05/11 04:52:37;;;;;;;19.48;10.18;;;;;;;;;;5069408;28;20056;-39
2022/05/11 04:55:03;;;;;;;12.18;7.30;;;;;;;;;;5069245;28;20056;-39
2022/05/11 04:57:28;;;;;;;26.65;8.75;;;;;;;;;;5069335;28;20052;-39
2022/05/11 04:59:56;;;;;;;15.00;8.05;;;;;;;;;;5069157;28;20421;-40
2022/05/11 05:02:23;;;;;;;19.00;8.30;;;;;;;;;;5069048;28;20024;-39
2022/05/11 05:04:49;;;;;;;17.85;7.28;;;;;;;;;;5068476;28;20048;-39
2022/05/11 05:07:15;;;;;;;20.35;7.28;;;;;;;;;;5069011;28;20025;-39
2022/05/11 05:09:41;;;;;;;14.07;6.78;;;;;;;;;;5068983;28;20371;-39
2022/05/11 05:12:07;;;;;;;12.25;7.30;;;;;;;;;;5068739;28;20365;-39
2022/05/11 05:14:32;;;;;;;21.17;7.35;;;;;;;;;;5068941;28;20024;-39
2022/05/11 05:17:02;;;;;;;16.83;7.03;;;;;;;;;;5057723;28;20361;-39
2022/05/11 05:19:28;;;;;;;14.95;6.80;;;;;;;;;;5055760;28;20099;-40
2022/05/11 05:21:53;;;;;;;14.20;5.95;;;;;;;;;;5055540;28;20067;-39
2022/05/11 05:24:18;;;;;;;23.48;7.88;;;;;;;;;;5055390;28;20479;-39
2022/05/11 05:26:44;;;;;;;15.73;6.93;;;;;;;;;;5055461;28;20021;-39
2022/05/11 05:31:53;;;;;;;23.95;6.40;;;;;;;;;;5055007;28;20392;-39
2022/05/11 05:34:18;;;;;;;14.60;5.85;;;;;;;;;;5055266;28;20009;-40
2022/05/11 05:36:44;;;;;;;15.07;6.18;;;;;;;;;;5055348;28;20452;-40
2022/05/11 05:39:09;;;;;;;116.57;56.03;;;;;;;;;;5055079;28;20035;-40
2022/05/11 05:41:35;;;;;;;19.58;5.90;;;;;;;;;;5054451;28;20515;-39
2022/05/11 05:44:00;;;;;;;16.00;5.28;;;;;;;;;;5054243;28;20029;-39
2022/05/11 05:46:26;;;;;;;10.40;4.97;;;;;;;;;;5054746;28;20064;-38
2022/05/11 05:48:51;;;;;;;9.23;4.30;;;;;;;;;;5054880;28;20025;-40
2022/05/11 05:51:17;;;;;;;11.48;5.38;;;;;;;;;;5048147;28;20167;-41
2022/05/11 05:53:44;;;;;;;11.45;5.28;;;;;;;;;;5036821;28;20159;-44
2022/05/11 05:56:11;;;;;;;10.63;4.97;;;;;;;;;;5037702;28;20112;-39
2022/05/11 05:58:37;;;;;;;11.15;4.32;;;;;;;;;;5032033;28;20271;-40
2022/05/11 06:01:03;;;;;;;25.83;5.88;;;;;;;;;;5046252;28;20099;-40
2022/05/11 06:03:29;;;;;;;12.48;4.35;;;;;;;;;;5039268;28;20076;-40
2022/05/11 06:05:55;;;;;;;15.55;5.13;;;;;;;;;;5041606;28;20049;-37
2022/05/11 06:08:21;;;;;;;10.77;4.32;;;;;;;;;;5041084;28;20052;-40
2022/05/11 06:10:47;;;;;;;10.25;4.75;;;;;;;;;;5036701;28;20161;-40
2022/05/11 06:13:14;;;;;;;12.32;4.55;;;;;;;;;;5035632;28;20437;-39
2022/05/11 06:15:40;;;;;;;35.65;14.00;;;;;;;;;;5044403;28;20021;-40
2022/05/11 06:18:07;;;;;;;14.32;4.18;;;;;;;;;;5048593;28;20456;-40
2022/05/11 06:20:32;;;;;;;10.70;3.83;;;;;;;;;;5047506;28;20072;-40
2022/05/11 06:22:58;;;;;;;7.60;3.53;;;;;;;;;;5039144;28;20087;-44
2022/05/11 06:25:23;;;;;;;11.43;4.70;;;;;;;;;;5048239;28;20056;-41
2022/05/11 06:27:49;;;;;;;9.27;3.53;;;;;;;;;;5033383;28;20029;-41
2022/05/11 06:30:15;;;;;;;8.00;3.45;;;;;;;;;;5044097;28;20060;-39
2022/05/11 06:32:40;;;;;;;6.53;3.60;;;;;;;;;;5033567;28;20025;-41
2022/05/11 06:35:06;;;;;;;8.67;3.63;;;;;;;;;;5055815;28;20033;-42
2022/05/11 06:37:31;;;;;;;26.95;5.13;;;;;;;;;;5039178;28;20270;-40
2022/05/11 06:39:58;;;;;;;10.90;3.35;;;;;;;;;;5037485;28;20037;-41
2022/05/11 06:42:24;;;;;;;6.78;3.20;;;;;;;;;;5044259;28;20036;-41
2022/05/11 06:44:49;;;;;;;5.97;3.30;;;;;;;;;;5042842;28;20033;-41
2022/05/11 06:47:15;;;;;;;12.15;3.38;;;;;;;;;;5048660;28;20057;-39
2022/05/11 06:49:41;;;;;;;8.40;3.17;;;;;;;;;;5035349;28;20103;-41
2022/05/11 06:52:06;;;;;;;11.38;3.67;;;;;;;;;;5045095;28;20102;-38
2022/05/11 06:59:59;;;;;;;5.70;2.90;;;;;;;;;;5041737;28;20087;-38
2022/05/11 07:02:25;;;;;;;8.20;3.35;;;;;;;;;;5040326;28;20415;-39
2022/05/11 07:04:51;;;;;;;6.45;3.00;;;;;;;;;;5031511;28;20046;-38
2022/05/11 07:07:18;;;;;;;10.70;2.85;;;;;;;;;;5042073;28;20032;-39
2022/05/11 07:09:43;;;;;;;12.30;3.65;;;;;;;;;;5040310;28;20061;-37
2022/05/11 07:12:18;;;;;;;5.68;2.60;;;;;;;;;;5041094;28;20057;-38
2022/05/11 07:14:51;;;;;;;11.10;3.22;;;;;;;;;;5035010;28;20021;-37
2022/05/11 07:17:33;;;;;;;61.47;44.65;;;;;;;;;;5033567;28;20124;-41
2022/05/11 07:20:00;;;;;;;9.60;3.08;;;;;;;;;;5029578;28;20031;-40
2022/05/11 07:22:26;;;;;;;5.45;2.50;;;;;;;;;;5028482;28;20021;-42
2022/05/11 07:24:52;;;;;;;9.02;2.97;;;;;;;;;;5031820;28;20079;-41
2022/05/11 07:27:18;;;;;;;6.47;2.92;;;;;;;;;;5034870;28;20392;-38
2022/05/11 07:29:43;;;;;;;7.95;3.45;;;;;;;;;;5033114;28;20105;-37
2022/05/11 07:32:09;;;;;;;11.48;2.90;;;;;;;;;;5031059;28;20121;-36
2022/05/11 07:34:34;;;;;;;6.82;2.90;;;;;;;;;;5033782;28;20036;-36
2022/05/11 07:37:00;;;;;;;4.75;2.53;;;;;;;;;;5036081;28;20071;-40
2022/05/11 07:39:25;;;;;;;6.10;2.15;;;;;;;;;;5037399;28;20071;-38
2022/05/11 07:41:51;;;;;;;10.95;3.10;;;;;;;;;;5038663;28;20500;-40
2022/05/11 07:44:16;;;;;;;6.78;3.25;;;;;;;;;;5042100;28;20068;-37
2022/05/11 07:46:42;;;;;;;7.47;2.50;;;;;;;;;;5040348;28;20036;-44
2022/05/11 07:49:09;;;;;;;7.95;2.70;;;;;;;;;;5035825;28;20246;-39
2022/05/11 07:51:35;;;;;;;7.97;2.60;;;;;;;;;;5039345;28;20029;-39
2022/05/11 07:54:00;;;;;;;5.25;2.95;;;;;;;;;;5050873;28;20384;-41
2022/05/11 08:01:53;;;;;;;4.65;2.40;;;;;;;;;;5035756;28;20060;-38
2022/05/11 08:04:19;;;;;;;8.07;2.35;;;;;;;;;;5037316;28;20053;-45
2022/05/11 08:06:44;;;;;;;4.13;2.30;;;;;;;;;;5031407;28;20072;-37
2022/05/11 08:09:10;;;;;;;6.50;2.23;;;;;;;;;;5038996;28;20017;-42
2022/05/11 08:11:36;;;;;;;7.78;2.30;;;;;;;;;;5036767;28;20293;-38
2022/05/11 08:14:02;;;;;;;7.07;2.28;;;;;;;;;;5038989;28;20037;-38
2022/05/11 08:16:28;;;;;;;109.38;48.88;;;;;;;;;;5033783;28;20022;-38
2022/05/11 08:18:54;;;;;;;9.77;2.20;;;;;;;;;;5031914;28;20108;-40
2022/05/11 08:21:19;;;;;;;89.93;67.10;;;;;;;;;;5031384;28;20116;-41
2022/05/11 08:23:46;;;;;;;3.35;2.00;;;;;;;;;;5032154;28;20033;-38
2022/05/11 08:26:11;;;;;;;2.92;2.03;;;;;;;;;;5039004;28;20511;-38
2022/05/11 08:28:37;;;;;;;8.82;2.00;;;;;;;;;;5036642;28;20109;-38
2022/05/11 08:33:47;;;;;;;12.85;5.53;;;;;;;;;;5031461;28;20016;-38
2022/05/11 08:36:17;;;;;;;4.00;1.80;;;;;;;;;;5038856;28;20100;-39
2022/05/11 08:38:44;;;;;;;7.55;3.20;;;;;;;;;;5034453;28;20455;-40
2022/05/11 08:41:26;;;;;;;2.15;1.80;;;;;;;;;;5028667;28;20049;-39
2022/05/11 08:43:54;;;;;;;578.78;514.95;;;;;;;;;;5029160;28;20388;-43
2022/05/11 08:46:35;;;;;;;675.97;605.43;;;;;;;;;;5038087;28;20033;-39
2022/05/11 08:49:06;;;;;;;711.13;610.70;;;;;;;;;;5029698;28;20018;-40
2022/05/11 08:51:49;;;;;;;68.18;54.17;;;;;;;;;;5035819;28;20022;-38
2022/05/11 08:54:34;;;;;;;6.88;1.80;;;;;;;;;;5035516;28;20017;-39
2022/05/11 08:57:00;;;;;;;3.15;1.85;;;;;;;;;;5044036;28;20056;-40
2022/05/11 08:59:32;;;;;;;7.43;2.17;;;;;;;;;;5045951;28;20029;-39
2022/05/11 09:01:57;;;;;;;5.15;1.98;;;;;;;;;;5042387;28;20025;-39
2022/05/11 09:04:25;;;;;;;5.13;2.20;;;;;;;;;;5036524;28;20140;-39
2022/05/11 09:06:51;;;;;;;6.25;2.00;;;;;;;;;;5035952;28;20029;-39
2022/05/11 09:09:17;;;;;;;3.65;2.38;;;;;;;;;;5045666;28;20032;-38
2022/05/11 09:11:50;;;;;;;4.60;1.92;;;;;;;;;;5039826;28;20029;-50
2022/05/11 09:14:18;;;;;;;4.82;1.70;;;;;;;;;;5038777;28;20400;-41
2022/05/11 09:16:48;;;;;;;5.30;1.77;;;;;;;;;;5038160;28;20028;-38
2022/05/11 09:19:14;;;;;;;4.03;2.05;;;;;;;;;;5033950;28;20033;-40
2022/05/11 09:21:41;;;;;;;4.28;2.00;;;;;;;;;;5041974;28;20029;-39
2022/05/11 09:24:08;;;;;;;5.50;1.92;;;;;;;;;;5043904;28;20555;-38
2022/05/11 09:26:38;;;;;;;3.55;1.98;;;;;;;;;;5036364;28;20454;-37
2022/05/11 09:29:12;;;;;;;5.25;2.22;;;;;;;;;;5033642;28;20029;-38
2022/05/11 09:31:38;;;;;;;5.05;2.33;;;;;;;;;;5034335;28;20025;-37
2022/05/11 09:34:05;;;;;;;10.25;2.50;;;;;;;;;;5034748;28;20431;-37
2022/05/11 09:36:42;;;;;;;3.58;2.00;;;;;;;;;;5049714;28;20028;-39
2022/05/11 09:39:13;;;;;;;8.35;2.58;;;;;;;;;;5051274;28;20446;-37
2022/05/11 09:41:40;;;;;;;5.53;2.15;;;;;;;;;;5043675;28;20392;-38
2022/05/11 09:44:26;;;;;;;6.05;2.80;;;;;;;;;;5035893;28;20032;-38
2022/05/11 09:46:52;;;;;;;4.82;2.53;;;;;;;;;;5043276;28;20033;-38
2022/05/11 09:49:20;;;;;;;4.10;2.60;;;;;;;;;;5040984;28;20394;-39
2022/05/11 09:51:46;;;;;;;4.75;2.67;;;;;;;;;;5038436;28;20464;-39
2022/05/11 09:54:15;;;;;;;7.00;3.17;;;;;;;;;;5034462;28;20025;-38
2022/05/11 09:56:46;;;;;;;7.28;3.28;;;;;;;;;;5033819;28;20041;-38
2022/05/11 09:59:20;;;;;;;7.07;3.17;;;;;;;;;;5040285;28;20029;-41
2022/05/11 10:01:48;;;;;;;4.35;3.13;;;;;;;;;;5033438;28;20033;-38
2022/05/11 10:04:13;;;;;;;4.25;2.90;;;;;;;;;;5033870;28;20370;-39
2022/05/11 10:06:47;;;;;;;8.07;3.17;;;;;;;;;;5034232;28;20025;-38
2022/05/11 10:09:15;;;;;;;8.10;3.28;;;;;;;;;;5032488;28;20095;-42
2022/05/11 10:11:49;;;;;;;12.55;3.47;;;;;;;;;;5037349;28;20017;-39
2022/05/11 10:22:58;;;;;;;5.35;2.67;;;;;;;;;;5041356;28;20031;-38
2022/05/11 10:25:35;;;;;;;9.88;2.85;;;;;;;;;;5037370;28;20053;-39
2022/05/11 10:28:09;;;;;;;6.93;2.60;;;;;;;;;;5033432;28;20037;-40
2022/05/11 10:30:57;;;;;;;7.45;2.65;;;;;;;;;;5031664;28;20018;-38
2022/05/11 10:33:33;;;;;;;5.53;2.00;;;;;;;;;;5035535;28;20036;-40
2022/05/11 10:36:01;;;;;;;7.40;2.13;;;;;;;;;;5038705;28;20017;-38
2022/05/11 10:38:39;;;;;;;5.75;2.33;;;;;;;;;;5043373;28;20044;-38
2022/05/11 10:41:12;;;;;;;5.10;2.63;;;;;;;;;;5037730;28;20125;-40
2022/05/11 10:43:40;;;;;;;5.57;2.45;;;;;;;;;;5039553;28;20471;-42
2022/05/11 10:46:18;;;;;;;5.60;2.20;;;;;;;;;;5040781;28;20040;-43
2022/05/11 10:48:50;;;;;;;94.25;82.30;;;;;;;;;;5036282;28;20028;-39
2022/05/11 10:51:25;;;;;;;6.53;2.13;;;;;;;;;;5044085;28;20468;-40
2022/05/11 10:54:05;;;;;;;74.20;67.38;;;;;;;;;;5050984;28;20049;-37
2022/05/11 10:56:53;;;;;;;4.38;2.00;;;;;;;;;;5038358;28;20029;-38
2022/05/11 10:59:46;;;;;;;9.13;2.10;;;;;;;;;;5036096;28;20029;-37
2022/05/11 11:02:31;;;;;;;4.78;2.00;;;;;;;;;;5045504;28;20063;-38
2022/05/11 11:05:17;;;;;;;7.13;2.05;;;;;;;;;;5041784;28;20049;-39
2022/05/11 11:07:42;;;;;;;5.60;2.10;;;;;;;;;;5052614;28;20033;-39
2022/05/11 11:10:11;;;;;;;7.70;2.60;;;;;;;;;;5041141;28;20021;-38
2022/05/11 11:12:37;;;;;;;3.60;2.10;;;;;;;;;;5033348;28;20259;-39
2022/05/11 11:15:06;;;;;;;7.97;2.00;;;;;;;;;;5032983;28;20060;-37
2022/05/11 11:17:32;;;;;;;7.43;2.05;;;;;;;;;;5044324;28;20460;-42
2022/05/11 11:20:00;;;;;;;4.57;2.33;;;;;;;;;;5038551;28;20068;-42
2022/05/11 11:22:26;;;;;;;4.80;2.30;;;;;;;;;;5039823;28;20025;-39
2022/05/11 11:25:10;;;;;;;3.03;2.47;;;;;;;;;;5032951;28;20309;-37
2022/05/11 11:27:54;;;;;;;10.55;2.60;;;;;;;;;;5032252;28;20392;-37
2022/05/11 11:30:21;;;;;;;6.55;1.83;;;;;;;;;;5032221;28;20025;-38
2022/05/11 11:33:05;;;;;;;3.30;2.10;;;;;;;;;;5035428;28;20037;-38
2022/05/11 11:35:34;;;;;;;4.65;2.10;;;;;;;;;;5039352;28;20029;-42
2022/05/11 11:38:01;;;;;;;3.95;2.55;;;;;;;;;;5042530;28;20095;-38
2022/05/11 11:40:28;;;;;;;4.07;2.10;;;;;;;;;;5043604;28;20439;-41
2022/05/11 11:42:53;;;;;;;15.77;2.92;;;;;;;;;;5034972;28;20258;-37
2022/05/11 11:45:26;;;;;;;3.70;2.00;;;;;;;;;;5033559;28;20510;-38
2022/05/11 11:48:05;;;;;;;5.25;2.28;;;;;;;;;;5033620;28;20053;-39
2022/05/11 11:50:44;;;;;;;5.90;2.03;;;;;;;;;;5033191;28;20032;-40
2022/05/11 11:53:12;;;;;;;8.43;1.80;;;;;;;;;;5032756;28;20037;-36
2022/05/11 11:55:38;;;;;;;6.90;2.47;;;;;;;;;;5035976;28;20047;-36
2022/05/11 11:58:16;;;;;;;6.35;2.30;;;;;;;;;;5040275;28;20061;-38
2022/05/11 12:00:47;;;;;;;4.53;2.33;;;;;;;;;;5036959;28;20021;-40
2022/05/11 12:03:17;;;;;;;3.05;1.92;;;;;;;;;;5042899;28;20017;-38
2022/05/11 12:05:43;;;;;;;4.05;1.85;;;;;;;;;;5031771;28;20059;-38
2022/05/11 12:16:54;;;;;;;11.20;2.22;;;;;;;;;;5037896;28;20028;-39
2022/05/11 12:19:21;;;;;;;6.78;2.33;;;;;;;;;;5030986;28;20025;-39
2022/05/11 12:22:02;;;;;;;2.88;2.25;;;;;;;;;;5029930;28;20025;-39
2022/05/11 12:24:29;;;;;;;6.50;2.50;;;;;;;;;;5040760;28;20052;-38
2022/05/11 12:27:02;;;;;;;4.32;2.10;;;;;;;;;;5041396;28;20022;-39
2022/05/11 12:32:19;;;;;;;4.65;2.17;;;;;;;;;;5045762;28;20048;-39
2022/05/11 12:34:46;;;;;;;4.78;2.15;;;;;;;;;;5035425;28;20515;-38
2022/05/11 12:37:22;;;;;;;4.05;2.60;;;;;;;;;;5037749;28;20071;-38
2022/05/11 12:39:53;;;;;;;6.05;2.40;;;;;;;;;;5052644;28;20024;-38
2022/05/11 12:42:38;;;;;;;5.13;2.47;;;;;;;;;;5040664;28;20025;-38
2022/05/11 12:45:05;;;;;;;5.68;2.75;;;;;;;;;;5035270;28;20049;-38
2022/05/11 12:47:30;;;;;;;6.22;2.45;;;;;;;;;;5035816;28;20037;-38
2022/05/11 12:49:56;;;;;;;4.40;2.28;;;;;;;;;;5044277;28;20078;-38
2022/05/11 12:52:24;;;;;;;5.45;2.03;;;;;;;;;;5035261;28;20025;-38
2022/05/11 12:55:01;;;;;;;3.35;2.03;;;;;;;;;;5035423;28;20066;-39
2022/05/11 12:57:37;;;;;;;6.03;2.28;;;;;;;;;;5035499;28;20030;-39
2022/05/11 13:00:11;;;;;;;6.75;2.40;;;;;;;;;;5044032;28;20033;-39
2022/05/11 13:02:39;;;;;;;4.70;2.28;;;;;;;;;;5036520;28;20041;-39
2022/05/11 13:05:07;;;;;;;9.75;2.35;;;;;;;;;;5033669;28;20057;-38
2022/05/11 13:07:48;;;;;;;4.60;2.70;;;;;;;;;;5035100;28;20457;-40
2022/05/11 13:10:18;;;;;;;5.60;2.50;;;;;;;;;;5033867;28;20633;-38
2022/05/11 13:12:46;;;;;;;8.90;2.75;;;;;;;;;;5045141;28;20017;-38
2022/05/11 13:15:11;;;;;;;3.75;2.20;;;;;;;;;;5052703;28;20067;-38
2022/05/11 13:17:40;;;;;;;6.38;2.42;;;;;;;;;;5042371;28;20026;-38
2022/05/11 13:20:22;;;;;;;3.05;2.10;;;;;;;;;;5043894;28;20033;-39
2022/05/11 13:22:59;;;;;;;3.60;2.35;;;;;;;;;;5034949;28;20038;-38
2022/05/11 13:25:40;;;;;;;4.60;2.35;;;;;;;;;;5035487;28;20040;-38
2022/05/11 13:28:29;;;;;;;8.32;2.40;;;;;;;;;;5040403;28;20478;-39
2022/05/11 13:30:56;;;;;;;6.73;2.40;;;;;;;;;;5032453;28;20041;-39
2022/05/11 13:33:24;;;;;;;3.60;2.47;;;;;;;;;;5041886;28;20025;-39
2022/05/11 13:36:03;;;;;;;3.63;2.40;;;;;;;;;;5036593;28;20025;-39
2022/05/11 13:38:29;;;;;;;7.33;2.70;;;;;;;;;;5038923;28;20139;-39
2022/05/11 13:40:54;;;;;;;5.57;2.30;;;;;;;;;;5038392;28;20114;-41
2022/05/11 13:43:19;;;;;;;8.27;2.78;;;;;;;;;;5042314;28;20025;-40
2022/05/11 13:45:55;;;;;;;5.25;2.50;;;;;;;;;;5034319;28;20034;-41
2022/05/11 13:48:22;;;;;;;3.03;2.40;;;;;;;;;;5039374;28;20061;-39
2022/05/11 13:50:49;;;;;;;14.23;2.97;;;;;;;;;;5038398;28;20037;-38
2022/05/11 13:53:21;;;;;;;6.25;2.67;;;;;;;;;;5036427;28;20026;-38
2022/05/11 13:56:04;;;;;;;5.57;2.72;;;;;;;;;;5038129;28;20033;-39
2022/05/11 13:58:43;;;;;;;4.25;2.45;;;;;;;;;;5047992;28;20081;-39
2022/05/11 14:01:12;;;;;;;5.07;2.50;;;;;;;;;;5039471;28;20057;-39
2022/05/11 14:03:38;;;;;;;7.70;2.80;;;;;;;;;;5036492;28;20044;-39
2022/05/11 14:06:06;;;;;;;7.63;2.33;;;;;;;;;;5033377;28;20057;-39
2022/05/11 14:08:33;;;;;;;4.73;2.67;;;;;;;;;;5049945;28;20021;-39
2022/05/11 14:10:59;;;;;;;6.22;3.05;;;;;;;;;;5033930;28;20079;-39
2022/05/11 14:13:25;;;;;;;8.93;2.95;;;;;;;;;;5033731;28;20521;-39
2022/05/11 14:15:51;;;;;;;7.90;3.00;;;;;;;;;;5039147;28;20021;-40
2022/05/11 14:18:20;;;;;;;10.85;4.70;;;;;;;;;;5033691;28;20036;-40
2022/05/11 14:20:46;;;;;;;5.88;2.85;;;;;;;;;;5033015;28;20549;-40
2022/05/11 14:23:11;;;;;;;14.50;2.97;;;;;;;;;;5037281;28;20034;-39
2022/05/11 14:25:37;;;;;;;4.50;2.97;;;;;;;;;;5038625;28;20041;-39
2022/05/11 14:28:02;;;;;;;4.35;2.65;;;;;;;;;;5038343;28;20021;-40
2022/05/11 14:30:28;;;;;;;7.28;2.97;;;;;;;;;;5039158;28;20028;-40
2022/05/11 14:32:53;;;;;;;4.68;3.00;;;;;;;;;;5033046;28;20036;-40
2022/05/11 14:35:22;;;;;;;8.90;3.55;;;;;;;;;;5032329;28;20021;-41
2022/05/11 14:37:48;;;;;;;7.45;2.72;;;;;;;;;;5031316;28;20447;-43
2022/05/11 14:40:16;;;;;;;7.68;4.43;;;;;;;;;;5033469;28;20025;-41
2022/05/11 14:42:41;;;;;;;11.80;6.55;;;;;;;;;;5033374;28;20488;-40
2022/05/11 14:45:07;;;;;;;10.63;4.93;;;;;;;;;;5033759;28;20041;-40
2022/05/11 14:47:33;;;;;;;11.73;4.60;;;;;;;;;;5033813;28;20014;-39
2022/05/11 14:49:59;;;;;;;6.38;3.20;;;;;;;;;;5045081;28;20060;-39
2022/05/11 14:52:24;;;;;;;9.02;3.08;;;;;;;;;;5052745;28;20023;-40
2022/05/11 14:54:50;;;;;;;5.30;2.83;;;;;;;;;;5051476;28;20021;-41
2022/05/11 15:02:43;;;;;;;12.77;4.03;;;;;;;;;;5052878;28;20055;-39
2022/05/11 15:05:11;;;;;;;8.52;4.07;;;;;;;;;;5052927;28;20061;-41
2022/05/11 15:07:37;;;;;;;5.93;3.13;;;;;;;;;;5053669;28;20028;-40
2022/05/11 15:10:03;;;;;;;7.93;3.53;;;;;;;;;;5053421;28;20017;-39
2022/05/11 15:15:12;;;;;;;7.25;3.38;;;;;;;;;;5053111;28;20051;-40
2022/05/11 15:17:38;;;;;;;13.20;2.90;;;;;;;;;;5053399;28;20538;-39
2022/05/11 15:20:06;;;;;;;3.60;2.30;;;;;;;;;;5053167;28;20083;-39
2022/05/11 15:22:33;;;;;;;5.75;3.05;;;;;;;;;;5053262;28;20116;-39
2022/05/11 15:24:58;;;;;;;6.72;2.53;;;;;;;;;;5038892;28;20507;-40
2022/05/11 15:27:24;;;;;;;11.85;2.83;;;;;;;;;;5033074;28;20017;-39
2022/05/11 15:29:49;;;;;;;4.95;2.72;;;;;;;;;;5032910;28;20174;-40
2022/05/11 15:32:25;;;;;;;11.25;3.28;;;;;;;;;;5032722;28;20598;-39